King Barley — 3FMD8 — position and weather

sailwx.info

Track history (hours):
 
Tides and Currents Weather Stations Pressure Air Temp Water Temp Dewpoint Dewpoint Depression Visibility Wind Speed Wind Dir Waves Ship Positions

King Barley

Last reported at 2018-Feb-11 18:04 UTC. Time now 2018-Feb-19 06:27 UTC.
Position N 00°12' W 050°42'.

Length 229 m; draft 11.5 m.

Type: Cargo ship. MMSI: 373049000.

Date/timePositionNaut miles runAvg speedWind from/ knotsBaromVisibWave heightAir tempDewpointWater temp
2018-Feb-11 18:04N 00°12' W 050°42'0 7.4
2018-Feb-11 18:00N 00°12' W 050°43'4 7.8
2018-Feb-11 17:30N 00°11' W 050°47'3 6.0
2018-Feb-11 17:00N 00°10' W 050°49'2 4.7
2018-Feb-11 16:29N 00°10' W 050°52'3 5.5
2018-Feb-11 16:00N 00°09' W 050°54'3 6.3
2018-Feb-11 15:30N 00°08' W 050°57'2 4.7
2018-Feb-11 15:00N 00°06' W 050°58'2 4.7
2018-Feb-11 14:30N 00°04' W 050°59'3 5.3
2018-Feb-11 14:00N 00°01' W 051°01'3 5.4
2018-Feb-11 13:30S 00°01' W 051°00'612.8
2018-Feb-11 13:01S 00°08' W 051°01'  
Track history (hours):
 
Tides and Currents Weather Stations Pressure Air Temp Water Temp Dewpoint Dewpoint Depression Visibility Wind Speed Wind Dir Waves Ship Positions

King Barley

Last reported at 2018-Feb-11 18:04 UTC. Time now 2018-Feb-19 06:27 UTC.
Position N 00°12' W 050°42'.

Length 229 m; draft 11.5 m.

Type: Cargo ship. MMSI: 373049000.

Date/timePositionNaut miles runAvg speedWind from/ knotsBaromVisibWave heightAir tempDewpointWater temp
2018-Feb-11 18:04N 00°12' W 050°42'0 7.4
2018-Feb-11 18:00N 00°12' W 050°43'4 7.8
2018-Feb-11 17:30N 00°11' W 050°47'3 6.0
2018-Feb-11 17:00N 00°10' W 050°49'2 4.7
2018-Feb-11 16:29N 00°10' W 050°52'3 5.5
2018-Feb-11 16:00N 00°09' W 050°54'3 6.3
2018-Feb-11 15:30N 00°08' W 050°57'2 4.7
2018-Feb-11 15:00N 00°06' W 050°58'2 4.7
2018-Feb-11 14:30N 00°04' W 050°59'3 5.3
2018-Feb-11 14:00N 00°01' W 051°01'3 5.4
2018-Feb-11 13:30S 00°01' W 051°00'612.8
2018-Feb-11 13:01S 00°08' W 051°01'  

Dump ship's entire track history